sensor_id;sensor_type;location;lat;lon;timestamp;pressure;altitude;pressure_sealevel;temperature
30001;BMP280;16845;48.670;9.000;2024-01-10T00:00:40;96140.94;;;-1.67
30001;BMP280;16845;48.670;9.000;2024-01-10T00:03:07;96136.03;;;-1.65
30001;BMP280;16845;48.670;9.000;2024-01-10T00:05:33;96129.59;;;-1.62
30001;BMP280;16845;48.670;9.000;2024-01-10T00:08:00;96131.34;;;-1.58
30001;BMP280;16845;48.670;9.000;2024-01-10T00:10:28;96134.50;;;-1.62
30001;BMP280;16845;48.670;9.000;2024-01-10T00:12:54;96132.16;;;-1.59
30001;BMP280;16845;48.670;9.000;2024-01-10T00:15:21;96133.19;;;-1.80
30001;BMP280;16845;48.670;9.000;2024-01-10T00:17:47;96134.94;;;-1.76
30001;BMP280;16845;48.670;9.000;2024-01-10T00:20:14;96135.47;;;-1.57
30001;BMP280;16845;48.670;9.000;2024-01-10T00:22:41;96135.72;;;-1.79
30001;BMP280;16845;48.670;9.000;2024-01-10T00:25:07;96128.09;;;-1.57
30001;BMP280;16845;48.670;9.000;2024-01-10T00:27:35;96134.44;;;-1.34
30001;BMP280;16845;48.670;9.000;2024-01-10T00:30:03;96133.56;;;-1.36
30001;BMP280;16845;48.670;9.000;2024-01-10T00:32:29;96119.69;;;-1.32
30001;BMP280;16845;48.670;9.000;2024-01-10T00:34:56;96125.28;;;-1.38
30001;BMP280;16845;48.670;9.000;2024-01-10T00:37:23;96114.06;;;-1.27
30001;BMP280;16845;48.670;9.000;2024-01-10T00:39:49;96123.28;;;-1.20
30001;BMP280;16845;48.670;9.000;2024-01-10T00:42:16;96116.66;;;-1.22
30001;BMP280;16845;48.670;9.000;2024-01-10T00:44:43;96112.13;;;-1.06
30001;BMP280;16845;48.670;9.000;2024-01-10T00:47:11;96112.69;;;-1.16
30001;BMP280;16845;48.670;9.000;2024-01-10T00:49:37;96105.97;;;-1.23
30001;BMP280;16845;48.670;9.000;2024-01-10T00:52:04;96106.34;;;-1.08
30001;BMP280;16845;48.670;9.000;2024-01-10T00:54:30;96104.59;;;-1.12
30001;BMP280;16845;48.670;9.000;2024-01-10T00:56:57;96114.41;;;-1.13
30001;BMP280;16845;48.670;9.000;2024-01-10T00:59:23;96117.22;;;-1.32
30001;BMP280;16845;48.670;9.000;2024-01-10T01:01:51;96121.50;;;-1.58
30001;BMP280;16845;48.670;9.000;2024-01-10T01:04:18;96119.38;;;-1.12
30001;BMP280;16845;48.670;9.000;2024-01-10T01:06:44;96116.03;;;-1.14
30001;BMP280;16845;48.670;9.000;2024-01-10T01:09:11;96111.25;;;-1.08
30001;BMP280;16845;48.670;9.000;2024-01-10T01:11:37;96102.22;;;-1.09
30001;BMP280;16845;48.670;9.000;2024-01-10T01:14:04;96110.13;;;-1.20
30001;BMP280;16845;48.670;9.000;2024-01-10T01:16:30;96105.19;;;-1.22
30001;BMP280;16845;48.670;9.000;2024-01-10T01:18:58;96108.16;;;-1.01
30001;BMP280;16845;48.670;9.000;2024-01-10T01:21:25;96104.59;;;-1.12
30001;BMP280;16845;48.670;9.000;2024-01-10T01:23:52;96112.78;;;-1.13
30001;BMP280;16845;48.670;9.000;2024-01-10T01:26:18;96109.25;;;-0.88
30001;BMP280;16845;48.670;9.000;2024-01-10T01:28:45;96113.47;;;-0.83
30001;BMP280;16845;48.670;9.000;2024-01-10T01:31:11;96116.41;;;-0.99
30001;BMP280;16845;48.670;9.000;2024-01-10T01:33:38;96117.03;;;-1.40
30001;BMP280;16845;48.670;9.000;2024-01-10T01:36:06;96115.53;;;-1.01
30001;BMP280;16845;48.670;9.000;2024-01-10T01:38:33;96119.56;;;-1.03
30001;BMP280;16845;48.670;9.000;2024-01-10T01:40:59;96117.59;;;-0.83
30001;BMP280;16845;48.670;9.000;2024-01-10T01:43:26;96108.56;;;-0.83
30001;BMP280;16845;48.670;9.000;2024-01-10T01:45:54;96112.94;;;-0.71
30001;BMP280;16845;48.670;9.000;2024-01-10T01:48:22;96115.34;;;-0.73
30001;BMP280;16845;48.670;9.000;2024-01-10T01:50:53;96106.06;;;-0.84
30001;BMP280;16845;48.670;9.000;2024-01-10T01:53:22;96109.47;;;-0.79
30001;BMP280;16845;48.670;9.000;2024-01-10T01:55:49;96105.38;;;-0.79
30001;BMP280;16845;48.670;9.000;2024-01-10T01:58:16;96102.59;;;-0.92
30001;BMP280;16845;48.670;9.000;2024-01-10T02:00:43;96105.16;;;-0.88
30001;BMP280;16845;48.670;9.000;2024-01-10T02:03:10;96105.50;;;-0.73
30001;BMP280;16845;48.670;9.000;2024-01-10T02:05:37;96101.53;;;-0.68
30001;BMP280;16845;48.670;9.000;2024-01-10T02:08:04;96106.41;;;-1.05
30001;BMP280;16845;48.670;9.000;2024-01-10T02:10:32;96105.59;;;-1.05
30001;BMP280;16845;48.670;9.000;2024-01-10T02:12:59;96103.13;;;-1.04
30001;BMP280;16845;48.670;9.000;2024-01-10T02:15:26;96099.22;;;-0.96
30001;BMP280;16845;48.670;9.000;2024-01-10T02:17:53;96105.50;;;-0.73
30001;BMP280;16845;48.670;9.000;2024-01-10T02:20:20;96100.84;;;-0.62
30001;BMP280;16845;48.670;9.000;2024-01-10T02:22:47;96099.13;;;-0.63
30001;BMP280;16845;48.670;9.000;2024-01-10T02:25:15;96097.38;;;-0.69
30001;BMP280;16845;48.670;9.000;2024-01-10T02:27:41;96093.50;;;-0.95
30001;BMP280;16845;48.670;9.000;2024-01-10T02:30:08;96098.31;;;-0.64
30001;BMP280;16845;48.670;9.000;2024-01-10T02:32:35;96091.28;;;-0.47
30001;BMP280;16845;48.670;9.000;2024-01-10T02:35:02;96091.50;;;-1.11
30001;BMP280;16845;48.670;9.000;2024-01-10T02:37:29;96081.00;;;-0.67
30001;BMP280;16845;48.670;9.000;2024-01-10T02:39:55;96092.31;;;-0.75
30001;BMP280;16845;48.670;9.000;2024-01-10T02:42:23;96089.00;;;-0.77
30001;BMP280;16845;48.670;9.000;2024-01-10T02:44:50;96091.03;;;-0.58
30001;BMP280;16845;48.670;9.000;2024-01-10T02:47:16;96082.16;;;-0.90
30001;BMP280;16845;48.670;9.000;2024-01-10T02:49:43;96083.66;;;-0.58
30001;BMP280;16845;48.670;9.000;2024-01-10T02:52:10;96081.00;;;-0.67
30001;BMP280;16845;48.670;9.000;2024-01-10T02:54:36;96073.41;;;-0.76
30001;BMP280;16845;48.670;9.000;2024-01-10T02:57:03;96082.34;;;-0.44
30001;BMP280;16845;48.670;9.000;2024-01-10T02:59:30;96075.16;;;-1.07
30001;BMP280;16845;48.670;9.000;2024-01-10T03:01:57;96073.16;;;-0.88
30001;BMP280;16845;48.670;9.000;2024-01-10T03:04:23;96071.72;;;-1.14
30001;BMP280;16845;48.670;9.000;2024-01-10T03:06:50;96075.91;;;-1.76
30001;BMP280;16845;48.670;9.000;2024-01-10T03:09:16;96074.09;;;-1.51
30001;BMP280;16845;48.670;9.000;2024-01-10T03:11:43;96068.06;;;-0.94
30001;BMP280;16845;48.670;9.000;2024-01-10T03:14:11;96071.34;;;-1.29
30001;BMP280;16845;48.670;9.000;2024-01-10T03:16:39;96064.66;;;-1.00
30001;BMP280;16845;48.670;9.000;2024-01-10T03:19:05;96060.88;;;-1.20
30001;BMP280;16845;48.670;9.000;2024-01-10T03:21:32;96062.59;;;-1.18
30001;BMP280;16845;48.670;9.000;2024-01-10T03:24:00;96055.09;;;-1.24
30001;BMP280;16845;48.670;9.000;2024-01-10T03:26:27;96056.66;;;-1.26
30001;BMP280;16845;48.670;9.000;2024-01-10T03:28:54;96060.78;;;-1.59
30001;BMP280;16845;48.670;9.000;2024-01-10T03:31:20;96062.81;;;-1.43
30001;BMP280;16845;48.670;9.000;2024-01-10T03:33:48;96057.16;;;-1.39
30001;BMP280;16845;48.670;9.000;2024-01-10T03:36:16;96047.91;;;-0.78
30001;BMP280;16845;48.670;9.000;2024-01-10T03:38:43;96057.38;;;-0.57
30001;BMP280;16845;48.670;9.000;2024-01-10T03:41:13;96051.94;;;-0.43
30001;BMP280;16845;48.670;9.000;2024-01-10T03:43:39;96066.78;;;-1.48
30001;BMP280;16845;48.670;9.000;2024-01-10T03:46:06;96049.47;;;-1.18
30001;BMP280;16845;48.670;9.000;2024-01-10T03:48:32;96060.78;;;-1.59
30001;BMP280;16845;48.670;9.000;2024-01-10T03:51:00;96061.22;;;-1.07
30001;BMP280;16845;48.670;9.000;2024-01-10T03:53:27;96065.59;;;-0.94
30001;BMP280;16845;48.670;9.000;2024-01-10T03:55:53;96066.47;;;-0.92
30001;BMP280;16845;48.670;9.000;2024-01-10T03:58:20;96071.28;;;-1.32
30001;BMP280;16845;48.670;9.000;2024-01-10T04:00:46;96072.31;;;-1.58
30001;BMP280;16845;48.670;9.000;2024-01-10T04:03:13;96073.47;;;-1.42
30001;BMP280;16845;48.670;9.000;2024-01-10T04:05:41;96072.19;;;-1.61
30001;BMP280;16845;48.670;9.000;2024-01-10T04:08:09;96070.41;;;-1.68
30001;BMP280;16845;48.670;9.000;2024-01-10T04:10:35;96071.19;;;-1.69
30001;BMP280;16845;48.670;9.000;2024-01-10T04:13:02;96080.19;;;-1.37
30001;BMP280;16845;48.670;9.000;2024-01-10T04:15:28;96079.19;;;-1.45
30001;BMP280;16845;48.670;9.000;2024-01-10T04:17:55;96079.41;;;-1.68
30001;BMP280;16845;48.670;9.000;2024-01-10T04:20:21;96082.03;;;-1.62
30001;BMP280;16845;48.670;9.000;2024-01-10T04:22:48;96077.59;;;-1.43
30001;BMP280;16845;48.670;9.000;2024-01-10T04:25:16;96067.63;;;-1.13
30001;BMP280;16845;48.670;9.000;2024-01-10T04:27:42;96069.84;;;-1.24
30001;BMP280;16845;48.670;9.000;2024-01-10T04:30:10;96078.38;;;-1.44
30001;BMP280;16845;48.670;9.000;2024-01-10T04:32:37;96071.81;;;-1.11
30001;BMP280;16845;48.670;9.000;2024-01-10T04:35:04;96084.34;;;-1.34
30001;BMP280;16845;48.670;9.000;2024-01-10T04:37:30;96073.59;;;-1.04
30001;BMP280;16845;48.670;9.000;2024-01-10T04:39:57;96069.91;;;-0.85
30001;BMP280;16845;48.670;9.000;2024-01-10T04:42:25;96077.25;;;-1.22
30001;BMP280;16845;48.670;9.000;2024-01-10T04:44:51;96071.22;;;-0.99
30001;BMP280;16845;48.670;9.000;2024-01-10T04:47:18;96076.19;;;-0.98
30001;BMP280;16845;48.670;9.000;2024-01-10T04:49:45;96078.50;;;-1.39
30001;BMP280;16845;48.670;9.000;2024-01-10T04:52:11;96069.56;;;-1.02
30001;BMP280;16845;48.670;9.000;2024-01-10T04:54:38;96067.16;;;-0.99
30001;BMP280;16845;48.670;9.000;2024-01-10T04:57:04;96072.22;;;-1.27
30001;BMP280;16845;48.670;9.000;2024-01-10T04:59:32;96069.44;;;-1.06
30001;BMP280;16845;48.670;9.000;2024-01-10T05:01:59;96069.56;;;-1.02
30001;BMP280;16845;48.670;9.000;2024-01-10T05:04:25;96073.34;;;-1.14
30001;BMP280;16845;48.670;9.000;2024-01-10T05:06:52;96076.72;;;-1.11
30001;BMP280;16845;48.670;9.000;2024-01-10T05:09:18;96082.34;;;-1.15
30001;BMP280;16845;48.670;9.000;2024-01-10T05:11:45;96083.16;;;-1.16
30001;BMP280;16845;48.670;9.000;2024-01-10T05:14:11;96075.06;;;-1.12
30001;BMP280;16845;48.670;9.000;2024-01-10T05:16:39;96079.03;;;-1.17
30001;BMP280;16845;48.670;9.000;2024-01-10T05:19:06;96079.69;;;-1.24
30001;BMP280;16845;48.670;9.000;2024-01-10T05:21:33;96081.44;;;-1.20
30001;BMP280;16845;48.670;9.000;2024-01-10T05:23:59;96071.53;;;-1.23
30001;BMP280;16845;48.670;9.000;2024-01-10T05:26:26;96075.34;;;-1.34
30001;BMP280;16845;48.670;9.000;2024-01-10T05:28:53;96082.13;;;-1.25
30001;BMP280;16845;48.670;9.000;2024-01-10T05:31:19;96072.91;;;-1.34
30001;BMP280;16845;48.670;9.000;2024-01-10T05:33:47;96087.31;;;-1.47
30001;BMP280;16845;48.670;9.000;2024-01-10T05:36:14;96081.53;;;-1.49
30001;BMP280;16845;48.670;9.000;2024-01-10T05:38:40;96090.69;;;-1.44
30001;BMP280;16845;48.670;9.000;2024-01-10T05:41:07;96092.38;;;-1.74
30001;BMP280;16845;48.670;9.000;2024-01-10T05:43:33;96081.75;;;-1.73
30001;BMP280;16845;48.670;9.000;2024-01-10T05:46:00;96077.97;;;-1.60
30001;BMP280;16845;48.670;9.000;2024-01-10T05:48:26;96073.72;;;-1.66
30001;BMP280;16845;48.670;9.000;2024-01-10T05:50:54;96082.66;;;-1.69
30001;BMP280;16845;48.670;9.000;2024-01-10T05:53:24;96092.94;;;-1.84
30001;BMP280;16845;48.670;9.000;2024-01-10T05:55:50;96087.13;;;-1.86
30001;BMP280;16845;48.670;9.000;2024-01-10T05:58:17;96088.47;;;-1.98
30001;BMP280;16845;48.670;9.000;2024-01-10T06:00:44;96103.28;;;-2.25
30001;BMP280;16845;48.670;9.000;2024-01-10T06:03:10;96097.19;;;-2.09
30001;BMP280;16845;48.670;9.000;2024-01-10T06:05:37;96091.66;;;-2.01
30001;BMP280;16845;48.670;9.000;2024-01-10T06:08:05;96100.03;;;-1.94
30001;BMP280;16845;48.670;9.000;2024-01-10T06:10:32;96094.81;;;-2.05
30001;BMP280;16845;48.670;9.000;2024-01-10T06:13:03;96094.78;;;-2.35
30001;BMP280;16845;48.670;9.000;2024-01-10T06:15:29;96088.91;;;-2.11
30001;BMP280;16845;48.670;9.000;2024-01-10T06:17:56;96093.13;;;-2.36
30001;BMP280;16845;48.670;9.000;2024-01-10T06:20:22;96086.78;;;-2.29
30001;BMP280;16845;48.670;9.000;2024-01-10T06:22:49;96091.16;;;-2.48
30001;BMP280;16845;48.670;9.000;2024-01-10T06:25:17;96090.47;;;-2.44
30001;BMP280;16845;48.670;9.000;2024-01-10T06:27:43;96090.75;;;-2.33
30001;BMP280;16845;48.670;9.000;2024-01-10T06:30:10;96088.56;;;-2.52
30001;BMP280;16845;48.670;9.000;2024-01-10T06:32:37;96096.13;;;-2.45
30001;BMP280;16845;48.670;9.000;2024-01-10T06:35:04;96099.53;;;-2.41
30001;BMP280;16845;48.670;9.000;2024-01-10T06:37:31;96100.53;;;-2.35
30001;BMP280;16845;48.670;9.000;2024-01-10T06:40:00;96103.19;;;-2.28
30001;BMP280;16845;48.670;9.000;2024-01-10T06:42:28;96109.28;;;-2.44
30001;BMP280;16845;48.670;9.000;2024-01-10T06:44:55;96104.66;;;-2.34
30001;BMP280;16845;48.670;9.000;2024-01-10T06:47:21;96108.66;;;-2.37
30001;BMP280;16845;48.670;9.000;2024-01-10T06:49:48;96105.47;;;-2.61
30001;BMP280;16845;48.670;9.000;2024-01-10T06:52:15;96107.69;;;-2.42
30001;BMP280;16845;48.670;9.000;2024-01-10T06:54:41;96109.50;;;-2.65
30001;BMP280;16845;48.670;9.000;2024-01-10T06:57:08;96108.56;;;-2.68
30001;BMP280;16845;48.670;9.000;2024-01-10T06:59:36;96118.72;;;-2.29
30001;BMP280;16845;48.670;9.000;2024-01-10T07:02:02;96112.88;;;-2.33
30001;BMP280;16845;48.670;9.000;2024-01-10T07:04:29;96121.03;;;-2.34
30001;BMP280;16845;48.670;9.000;2024-01-10T07:06:55;96118.50;;;-2.36
30001;BMP280;16845;48.670;9.000;2024-01-10T07:09:22;96123.03;;;-2.22
30001;BMP280;16845;48.670;9.000;2024-01-10T07:11:49;96124.66;;;-2.22
30001;BMP280;16845;48.670;9.000;2024-01-10T07:14:15;96120.38;;;-2.28
30001;BMP280;16845;48.670;9.000;2024-01-10T07:16:44;96121.91;;;-2.33
30001;BMP280;16845;48.670;9.000;2024-01-10T07:19:10;96128.41;;;-2.05
30001;BMP280;16845;48.670;9.000;2024-01-10T07:21:37;96127.41;;;-2.12
30001;BMP280;16845;48.670;9.000;2024-01-10T07:24:04;96131.63;;;-2.08
30001;BMP280;16845;48.670;9.000;2024-01-10T07:26:30;96131.66;;;-2.35
30001;BMP280;16845;48.670;9.000;2024-01-10T07:28:57;96144.84;;;-2.04
30001;BMP280;16845;48.670;9.000;2024-01-10T07:31:23;96140.09;;;-2.26
30001;BMP280;16845;48.670;9.000;2024-01-10T07:33:51;96136.66;;;-2.03
30001;BMP280;16845;48.670;9.000;2024-01-10T07:36:18;96132.88;;;-1.92
30001;BMP280;16845;48.670;9.000;2024-01-10T07:38:44;96134.13;;;-1.77
30001;BMP280;16845;48.670;9.000;2024-01-10T07:41:11;96134.53;;;-1.91
30001;BMP280;16845;48.670;9.000;2024-01-10T07:43:37;96143.44;;;-1.65
30001;BMP280;16845;48.670;9.000;2024-01-10T07:46:04;96141.00;;;-1.95
30001;BMP280;16845;48.670;9.000;2024-01-10T07:48:31;96137.50;;;-1.72
30001;BMP280;16845;48.670;9.000;2024-01-10T07:50:59;96147.84;;;-1.54
30001;BMP280;16845;48.670;9.000;2024-01-10T07:53:25;96144.91;;;-1.72
30001;BMP280;16845;48.670;9.000;2024-01-10T07:55:52;96157.91;;;-1.76
30001;BMP280;16845;48.670;9.000;2024-01-10T07:58:19;96155.84;;;-1.61
30001;BMP280;16845;48.670;9.000;2024-01-10T08:00:45;96155.16;;;-1.57
30001;BMP280;16845;48.670;9.000;2024-01-10T08:03:12;96155.94;;;-1.58
30001;BMP280;16845;48.670;9.000;2024-01-10T08:05:38;96162.91;;;-1.42
30001;BMP280;16845;48.670;9.000;2024-01-10T08:08:06;96155.28;;;-1.20
30001;BMP280;16845;48.670;9.000;2024-01-10T08:10:33;96153.16;;;-1.06
30001;BMP280;16845;48.670;9.000;2024-01-10T08:13:02;96158.22;;;-1.02
30001;BMP280;16845;48.670;9.000;2024-01-10T08:15:29;96156.34;;;-1.10
30001;BMP280;16845;48.670;9.000;2024-01-10T08:17:55;96159.78;;;-1.04
30001;BMP280;16845;48.670;9.000;2024-01-10T08:20:22;96154.84;;;-1.05
30001;BMP280;16845;48.670;9.000;2024-01-10T08:22:49;96162.81;;;-1.14
30001;BMP280;16845;48.670;9.000;2024-01-10T08:25:17;96160.88;;;-0.93
30001;BMP280;16845;48.670;9.000;2024-01-10T08:27:43;96159.59;;;-0.77
30001;BMP280;16845;48.670;9.000;2024-01-10T08:30:11;96164.63;;;-0.73
30001;BMP280;16845;48.670;9.000;2024-01-10T08:32:38;96164.69;;;-0.71
30001;BMP280;16845;48.670;9.000;2024-01-10T08:35:05;96175.78;;;-0.51
30001;BMP280;16845;48.670;9.000;2024-01-10T08:37:31;96168.22;;;-0.23
30001;BMP280;16845;48.670;9.000;2024-01-10T08:39:58;96171.59;;;-0.55
30001;BMP280;16845;48.670;9.000;2024-01-10T08:42:26;96167.47;;;-0.19
30001;BMP280;16845;48.670;9.000;2024-01-10T08:44:53;96162.53;;;-0.21
30001;BMP280;16845;48.670;9.000;2024-01-10T08:47:19;96162.28;;;-0.33
30001;BMP280;16845;48.670;9.000;2024-01-10T08:49:46;96165.94;;;0.25
30001;BMP280;16845;48.670;9.000;2024-01-10T08:52:12;96166.56;;;0.57
30001;BMP280;16845;48.670;9.000;2024-01-10T08:54:39;96174.63;;;0.07
30001;BMP280;16845;48.670;9.000;2024-01-10T08:57:05;96175.00;;;0.26
30001;BMP280;16845;48.670;9.000;2024-01-10T08:59:33;96182.59;;;0.78
30001;BMP280;16845;48.670;9.000;2024-01-10T09:02:00;96183.78;;;0.98
30001;BMP280;16845;48.670;9.000;2024-01-10T09:04:27;96191.50;;;1.16
30001;BMP280;16845;48.670;9.000;2024-01-10T09:06:53;96189.28;;;0.84
30001;BMP280;16845;48.670;9.000;2024-01-10T09:09:20;96187.28;;;0.65
30001;BMP280;16845;48.670;9.000;2024-01-10T09:11:46;96188.75;;;0.14
30001;BMP280;16845;48.670;9.000;2024-01-10T09:14:13;96194.81;;;-0.10
30001;BMP280;16845;48.670;9.000;2024-01-10T09:16:41;96189.78;;;0.68
30001;BMP280;16845;48.670;9.000;2024-01-10T09:19:07;96196.88;;;0.10
30001;BMP280;16845;48.670;9.000;2024-01-10T09:21:37;96192.22;;;0.65
30001;BMP280;16845;48.670;9.000;2024-01-10T09:24:04;96192.25;;;0.68
30001;BMP280;16845;48.670;9.000;2024-01-10T09:26:47;96202.44;;;1.30
30001;BMP280;16845;48.670;9.000;2024-01-10T09:29:13;96189.00;;;1.67
30001;BMP280;16845;48.670;9.000;2024-01-10T09:31:41;96193.94;;;1.65
30001;BMP280;16845;48.670;9.000;2024-01-10T09:34:08;96196.94;;;0.53
30001;BMP280;16845;48.670;9.000;2024-01-10T09:36:34;96194.97;;;1.26
30001;BMP280;16845;48.670;9.000;2024-01-10T09:39:01;96197.47;;;0.80
30001;BMP280;16845;48.670;9.000;2024-01-10T09:41:28;96199.75;;;0.71
30001;BMP280;16845;48.670;9.000;2024-01-10T09:43:57;96200.56;;;1.66
30001;BMP280;16845;48.670;9.000;2024-01-10T09:46:24;96199.66;;;1.64
30001;BMP280;16845;48.670;9.000;2024-01-10T09:48:52;96193.72;;;2.08
30001;BMP280;16845;48.670;9.000;2024-01-10T09:51:22;96196.78;;;1.89
30001;BMP280;16845;48.670;9.000;2024-01-10T09:53:50;96187.88;;;2.71
30001;BMP280;16845;48.670;9.000;2024-01-10T09:56:17;96186.78;;;3.27
30001;BMP280;16845;48.670;9.000;2024-01-10T09:58:45;96194.03;;;3.06
30001;BMP280;16845;48.670;9.000;2024-01-10T10:01:13;96181.97;;;3.44
30001;BMP280;16845;48.670;9.000;2024-01-10T10:03:41;96187.75;;;2.58
30001;BMP280;16845;48.670;9.000;2024-01-10T10:06:09;96179.09;;;4.06
30001;BMP280;16845;48.670;9.000;2024-01-10T10:08:41;96179.69;;;3.66
30001;BMP280;16845;48.670;9.000;2024-01-10T10:11:11;96180.28;;;4.84
30001;BMP280;16845;48.670;9.000;2024-01-10T10:13:38;96180.38;;;5.70
30001;BMP280;16845;48.670;9.000;2024-01-10T10:16:05;96171.22;;;5.15
30001;BMP280;16845;48.670;9.000;2024-01-10T10:18:32;96162.88;;;6.28
30001;BMP280;16845;48.670;9.000;2024-01-10T10:21:06;96168.63;;;6.47
30001;BMP280;16845;48.670;9.000;2024-01-10T10:23:35;96175.22;;;4.59
30001;BMP280;16845;48.670;9.000;2024-01-10T10:26:10;96175.38;;;5.22
30001;BMP280;16845;48.670;9.000;2024-01-10T10:28:37;96167.94;;;5.97
30001;BMP280;16845;48.670;9.000;2024-01-10T10:31:03;96170.38;;;6.18
30001;BMP280;16845;48.670;9.000;2024-01-10T10:33:32;96171.25;;;6.00
30001;BMP280;16845;48.670;9.000;2024-01-10T10:35:59;96177.06;;;5.89
30001;BMP280;16845;48.670;9.000;2024-01-10T10:38:25;96163.13;;;7.42
30001;BMP280;16845;48.670;9.000;2024-01-10T10:40:55;96153.78;;;8.53
30001;BMP280;16845;48.670;9.000;2024-01-10T10:43:21;96148.03;;;9.11
30001;BMP280;16845;48.670;9.000;2024-01-10T10:45:49;96142.31;;;9.02
30001;BMP280;16845;48.670;9.000;2024-01-10T10:48:17;96148.38;;;9.44
30001;BMP280;16845;48.670;9.000;2024-01-10T10:50:50;96144.81;;;10.54
30001;BMP280;16845;48.670;9.000;2024-01-10T10:53:18;96133.78;;;10.63
30001;BMP280;16845;48.670;9.000;2024-01-10T10:55:46;96130.78;;;11.25
30001;BMP280;16845;48.670;9.000;2024-01-10T10:58:15;96129.22;;;11.56
30001;BMP280;16845;48.670;9.000;2024-01-10T11:00:42;96134.25;;;11.56
30001;BMP280;16845;48.670;9.000;2024-01-10T11:03:10;96128.47;;;11.16
30001;BMP280;16845;48.670;9.000;2024-01-10T11:05:40;96130.19;;;11.86
30001;BMP280;16845;48.670;9.000;2024-01-10T11:08:08;96126.59;;;11.25
30001;BMP280;16845;48.670;9.000;2024-01-10T11:10:39;96130.69;;;12.31
30001;BMP280;16845;48.670;9.000;2024-01-10T11:13:24;96132.72;;;13.37
30001;BMP280;16845;48.670;9.000;2024-01-10T11:16:04;96137.19;;;13.29
30001;BMP280;16845;48.670;9.000;2024-01-10T11:18:54;96132.50;;;13.17
30001;BMP280;16845;48.670;9.000;2024-01-10T11:21:34;96129.69;;;13.54
30001;BMP280;16845;48.670;9.000;2024-01-10T11:24:03;96126.59;;;13.46
30001;BMP280;16845;48.670;9.000;2024-01-10T11:26:30;96129.94;;;11.62
30001;BMP280;16845;48.670;9.000;2024-01-10T11:28:59;96133.16;;;10.08
30001;BMP280;16845;48.670;9.000;2024-01-10T11:31:28;96126.31;;;10.17
30001;BMP280;16845;48.670;9.000;2024-01-10T11:33:55;96136.09;;;9.81
30001;BMP280;16845;48.670;9.000;2024-01-10T11:36:22;96134.13;;;10.87
30001;BMP280;16845;48.670;9.000;2024-01-10T11:38:50;96140.84;;;8.13
30001;BMP280;16845;48.670;9.000;2024-01-10T11:41:21;96123.25;;;9.49
30001;BMP280;16845;48.670;9.000;2024-01-10T11:46:50;96132.75;;;9.82
30001;BMP280;16845;48.670;9.000;2024-01-10T11:49:20;96132.34;;;9.00
30001;BMP280;16845;48.670;9.000;2024-01-10T11:51:47;96137.78;;;7.87
30001;BMP280;16845;48.670;9.000;2024-01-10T11:54:34;96136.97;;;7.82
30001;BMP280;16845;48.670;9.000;2024-01-10T11:57:01;96145.31;;;8.64
30001;BMP280;16845;48.670;9.000;2024-01-10T11:59:28;96140.41;;;6.42
30001;BMP280;16845;48.670;9.000;2024-01-10T12:01:57;96128.25;;;8.27
30001;BMP280;16845;48.670;9.000;2024-01-10T12:04:23;96126.00;;;11.13
30001;BMP280;16845;48.670;9.000;2024-01-10T12:07:04;96113.88;;;13.49
30001;BMP280;16845;48.670;9.000;2024-01-10T12:09:31;96112.06;;;12.68
30001;BMP280;16845;48.670;9.000;2024-01-10T12:11:58;96125.03;;;10.82
30001;BMP280;16845;48.670;9.000;2024-01-10T12:14:24;96135.19;;;9.33
30001;BMP280;16845;48.670;9.000;2024-01-10T12:16:51;96121.78;;;10.77
30001;BMP280;16845;48.670;9.000;2024-01-10T12:19:19;96118.22;;;11.63
30001;BMP280;16845;48.670;9.000;2024-01-10T12:21:46;96120.47;;;12.38
30001;BMP280;16845;48.670;9.000;2024-01-10T12:24:12;96115.22;;;11.46
30001;BMP280;16845;48.670;9.000;2024-01-10T12:26:43;96111.19;;;14.05
30001;BMP280;16845;48.670;9.000;2024-01-10T12:29:10;96111.13;;;12.72
30001;BMP280;16845;48.670;9.000;2024-01-10T12:31:37;96107.38;;;14.19
30001;BMP280;16845;48.670;9.000;2024-01-10T12:34:03;96106.28;;;13.76
30001;BMP280;16845;48.670;9.000;2024-01-10T12:36:35;96111.28;;;13.24
30001;BMP280;16845;48.670;9.000;2024-01-10T12:39:01;96113.50;;;11.11
30001;BMP280;16845;48.670;9.000;2024-01-10T12:41:28;96105.59;;;13.45
30001;BMP280;16845;48.670;9.000;2024-01-10T12:43:55;96095.22;;;15.65
30001;BMP280;16845;48.670;9.000;2024-01-10T12:46:22;96095.41;;;15.61
30001;BMP280;16845;48.670;9.000;2024-01-10T12:48:58;96097.81;;;14.03
30001;BMP280;16845;48.670;9.000;2024-01-10T12:51:24;96090.16;;;14.78
30001;BMP280;16845;48.670;9.000;2024-01-10T12:53:52;96102.75;;;13.82
30001;BMP280;16845;48.670;9.000;2024-01-10T12:56:19;96101.13;;;13.79
30001;BMP280;16845;48.670;9.000;2024-01-10T12:58:45;96096.38;;;13.44
30001;BMP280;16845;48.670;9.000;2024-01-10T13:01:12;96092.66;;;14.06
30001;BMP280;16845;48.670;9.000;2024-01-10T13:03:39;96102.25;;;11.65
30001;BMP280;16845;48.670;9.000;2024-01-10T13:06:06;96098.09;;;12.87
30001;BMP280;16845;48.670;9.000;2024-01-10T13:08:32;96094.84;;;12.55
30001;BMP280;16845;48.670;9.000;2024-01-10T13:11:01;96095.84;;;11.85
30001;BMP280;16845;48.670;9.000;2024-01-10T13:13:28;96093.03;;;13.96
30001;BMP280;16845;48.670;9.000;2024-01-10T13:15:54;96094.47;;;13.52
30001;BMP280;16845;48.670;9.000;2024-01-10T13:18:21;96099.59;;;12.93
30001;BMP280;16845;48.670;9.000;2024-01-10T13:20:48;96097.88;;;12.35
30001;BMP280;16845;48.670;9.000;2024-01-10T13:23:14;96101.00;;;10.70
30001;BMP280;16845;48.670;9.000;2024-01-10T13:25:41;96094.84;;;13.40
30001;BMP280;16845;48.670;9.000;2024-01-10T13:28:09;96091.81;;;13.81
30001;BMP280;16845;48.670;9.000;2024-01-10T13:30:35;96104.06;;;11.59
30001;BMP280;16845;48.670;9.000;2024-01-10T13:33:02;96107.69;;;12.44
30001;BMP280;16845;48.670;9.000;2024-01-10T13:35:29;96124.19;;;9.42
30001;BMP280;16845;48.670;9.000;2024-01-10T13:37:55;96118.09;;;9.59
30001;BMP280;16845;48.670;9.000;2024-01-10T13:40:22;96119.25;;;8.82
30001;BMP280;16845;48.670;9.000;2024-01-10T13:42:48;96114.19;;;8.85
30001;BMP280;16845;48.670;9.000;2024-01-10T13:45:16;96114.84;;;8.99
30001;BMP280;16845;48.670;9.000;2024-01-10T13:47:43;96116.53;;;9.52
30001;BMP280;16845;48.670;9.000;2024-01-10T13:50:09;96114.13;;;8.89
30001;BMP280;16845;48.670;9.000;2024-01-10T13:52:36;96116.78;;;9.86
30001;BMP280;16845;48.670;9.000;2024-01-10T13:55:03;96114.19;;;10.37
30001;BMP280;16845;48.670;9.000;2024-01-10T13:57:30;96107.97;;;10.56
30001;BMP280;16845;48.670;9.000;2024-01-10T13:59:58;96107.53;;;10.79
30001;BMP280;16845;48.670;9.000;2024-01-10T14:02:26;96115.44;;;9.14
30001;BMP280;16845;48.670;9.000;2024-01-10T14:04:53;96129.72;;;8.43
30001;BMP280;16845;48.670;9.000;2024-01-10T14:07:20;96116.88;;;9.30
30001;BMP280;16845;48.670;9.000;2024-01-10T14:09:46;96126.78;;;8.05
30001;BMP280;16845;48.670;9.000;2024-01-10T14:12:13;96135.81;;;7.20
30001;BMP280;16845;48.670;9.000;2024-01-10T14:14:40;96130.16;;;6.92